Página principal
METAR-TAF:

METAR-TAF

Aeroportos :

Tambacounda, Senegal

latitude: 13-46N, longitude: 013-41W, altura: 49 m

Observação actual do tempo

O boletim foi feito há 1 hora e 7 minutos, às 10:00 UTC
Vento 6 kt de sul
Temperatura 26°C
Humidade 94%
Pressão 1014 hPa
Visibilidade 10 km ou mais
Nuvens fragmentadasa uma altura de 1000 ft

METAR: GOTT 191000Z 18006KT 9999 BKN010 26/25 Q1014

Hora: 11:07 (11:07 UTC)


TAF: em falta

Observações e previsões do tempo de mais de 4000 aeroportos (mensagens METAR e TAF).

As estações disponíveis são os pontos amarelos e vermelhos sobre o mapa.

Mova o rato sobre o mapa para ver o nome da estação.

Depois clique no ponto para visualizar as observações e previsões meteorológicas.

Para alterar o mapa : clique nos botões verdes com uma cruz preta para aumentar o zoom; no botão verde com uma pitada de zoom; ou nas setas verdes para mapas adjacentes.


METAR-TAF: